PWSweather.com
Personal Weather Stations
Station Observations
LEONMETEO
LeonES 24008

LeonES 24008

Lat: 42.6055559, Lon: -5.5752249

Elevation: 2690

Station Type: La Crosse WS3600

Latest ConditionsUpdated 3:44:40 AM GMT+01:01 Wednesday, Mar 4, 2015
Currently Today's Max Today's Min Today's Average
Temperature 43.5°F6.4°C 46.0°F7.8°C 42.9°F6.1°C 44.2°F6.8°C
Dew Point 35.7°F2.1°C 37.8°F3.2°C 35.2°F1.8°C 36.4°F2.4°C
Winds - N16091.8 kmh N Calm Calm - Calm Calm
Wind Gusts -- -- - -
Humidity 74% 75% 73% 74%
Pressure 30.12 in1020.0 mb 30.12 in1020.0 mb 30.07 in1018.3 mb -
Hour Temp Dew Point Humidity Winds Wind Gusts Pressure Precip Precip Rate Daily Precip Total
03:44 AM 43.5°F6.4°C 35.7°F2.1°C 74% - N16091.8 kmh N -- 30.12 in1020.0 mb 0.00 in0.0 mm 0.00 in/hr0.0 mm/hr 0.00 in0.0 mm
03:39 AM 43.5°F6.4°C 35.7°F2.1°C 74% - N16091.8 kmh N -- 30.12 in1020.0 mb 0.00 in0.0 mm 0.00 in/hr0.0 mm/hr 0.00 in0.0 mm
03:34 AM 43.5°F6.4°C 35.7°F2.1°C 74% - N16091.8 kmh N -- 30.12 in1020.0 mb 0.00 in0.0 mm 0.00 in/hr0.0 mm/hr 0.00 in0.0 mm
03:29 AM 43.3°F6.3°C 35.9°F2.2°C 74% - N16091.8 kmh N -- 30.12 in1020.0 mb 0.00 in0.0 mm 0.00 in/hr0.0 mm/hr 0.00 in0.0 mm
03:24 AM 43.3°F6.3°C 35.9°F2.2°C 74% - N16091.8 kmh N -- 30.11 in1019.6 mb 0.00 in0.0 mm 0.00 in/hr0.0 mm/hr 0.00 in0.0 mm
03:19 AM 43.3°F6.3°C 35.9°F2.2°C 74% - N16091.8 kmh N -- 30.11 in1019.6 mb 0.00 in0.0 mm 0.00 in/hr0.0 mm/hr 0.00 in0.0 mm
03:14 AM 43.3°F6.3°C 35.9°F2.2°C 74% - N16091.8 kmh N -- 30.11 in1019.6 mb 0.00 in0.0 mm 0.00 in/hr0.0 mm/hr 0.00 in0.0 mm
03:09 AM 43.3°F6.3°C 35.9°F2.2°C 75% - N16091.8 kmh N -- 30.11 in1019.6 mb 0.00 in0.0 mm 0.00 in/hr0.0 mm/hr 0.00 in0.0 mm
03:04 AM 43.3°F6.3°C 35.9°F2.2°C 75% - N16091.8 kmh N -- 30.11 in1019.6 mb 0.00 in0.0 mm 0.00 in/hr0.0 mm/hr 0.00 in0.0 mm
02:59 AM 43.1°F6.2°C 35.7°F2.1°C 75% - N16091.8 kmh N -- 30.11 in1019.6 mb 0.00 in0.0 mm 0.00 in/hr0.0 mm/hr 0.00 in0.0 mm
02:54 AM 43.1°F6.2°C 35.7°F2.1°C 75% - N16091.8 kmh N -- 30.11 in1019.6 mb 0.00 in0.0 mm 0.00 in/hr0.0 mm/hr 0.00 in0.0 mm
02:49 AM 42.9°F6.1°C 35.5°F1.9°C 75% - N16091.8 kmh N -- 30.11 in1019.6 mb 0.00 in0.0 mm 0.00 in/hr0.0 mm/hr 0.00 in0.0 mm
02:44 AM 42.9°F6.1°C 35.2°F1.8°C 74% - N16091.8 kmh N -- 30.11 in1019.6 mb 0.00 in0.0 mm 0.00 in/hr0.0 mm/hr 0.00 in0.0 mm
02:39 AM 43.3°F6.3°C 35.6°F2.0°C 74% - N16091.8 kmh N -- 30.10 in1019.3 mb 0.00 in0.0 mm 0.00 in/hr0.0 mm/hr 0.00 in0.0 mm
02:34 AM 43.3°F6.3°C 35.6°F2.0°C 74% - N16091.8 kmh N -- 30.10 in1019.3 mb 0.00 in0.0 mm 0.00 in/hr0.0 mm/hr 0.00 in0.0 mm
02:29 AM 43.3°F6.3°C 35.6°F2.0°C 74% - N16091.8 kmh N -- 30.10 in1019.3 mb 0.00 in0.0 mm 0.00 in/hr0.0 mm/hr 0.00 in0.0 mm
02:24 AM 43.5°F6.4°C 35.7°F2.1°C 74% - N16091.8 kmh N -- 30.10 in1019.3 mb 0.00 in0.0 mm 0.00 in/hr0.0 mm/hr 0.00 in0.0 mm
02:19 AM 43.7°F6.5°C 35.9°F2.2°C 74% - N16091.8 kmh N -- 30.10 in1019.3 mb 0.00 in0.0 mm 0.00 in/hr0.0 mm/hr 0.00 in0.0 mm
02:14 AM 43.8°F6.6°C 36.1°F2.3°C 74% - N16091.8 kmh N -- 30.09 in1019.0 mb 0.00 in0.0 mm 0.00 in/hr0.0 mm/hr 0.00 in0.0 mm
02:09 AM 43.8°F6.6°C 36.1°F2.3°C 74% - N16091.8 kmh N -- 30.09 in1019.0 mb 0.00 in0.0 mm 0.00 in/hr0.0 mm/hr 0.00 in0.0 mm
02:04 AM 44.2°F6.8°C 36.4°F2.4°C 74% - N16091.8 kmh N -- 30.09 in1019.0 mb 0.00 in0.0 mm 0.00 in/hr0.0 mm/hr 0.00 in0.0 mm
01:59 AM 44.2°F6.8°C 36.4°F2.4°C 74% - N16091.8 kmh N -- 30.09 in1019.0 mb 0.00 in0.0 mm 0.00 in/hr0.0 mm/hr 0.00 in0.0 mm
01:54 AM 44.4°F6.9°C 36.6°F2.6°C 74% - N16091.8 kmh N -- 30.09 in1019.0 mb 0.00 in0.0 mm 0.00 in/hr0.0 mm/hr 0.00 in0.0 mm
01:49 AM 44.4°F6.9°C 36.6°F2.6°C 74% - N16091.8 kmh N -- 30.09 in1019.0 mb 0.00 in0.0 mm 0.00 in/hr0.0 mm/hr 0.00 in0.0 mm
01:40 AM 44.4°F6.9°C 36.6°F2.6°C 74% - N16091.8 kmh N -- 30.09 in1019.0 mb 0.00 in0.0 mm 0.00 in/hr0.0 mm/hr 0.00 in0.0 mm
01:32 AM 44.4°F6.9°C 36.6°F2.6°C 74% - N16091.8 kmh N -- 30.09 in1019.0 mb 0.00 in0.0 mm 0.00 in/hr0.0 mm/hr 0.00 in0.0 mm
01:27 AM 44.4°F6.9°C 36.6°F2.6°C 74% - N16091.8 kmh N -- 30.09 in1019.0 mb 0.00 in0.0 mm 0.00 in/hr0.0 mm/hr 0.00 in0.0 mm
01:22 AM 44.6°F7.0°C 36.7°F2.6°C 74% - N16091.8 kmh N -- 30.09 in1019.0 mb 0.00 in0.0 mm 0.00 in/hr0.0 mm/hr 0.00 in0.0 mm
01:17 AM 44.7°F7.1°C 36.6°F2.6°C 73% - N16091.8 kmh N -- 30.09 in1019.0 mb 0.00 in0.0 mm 0.00 in/hr0.0 mm/hr 0.00 in0.0 mm
01:12 AM 44.7°F7.1°C 36.6°F2.6°C 73% - N16091.8 kmh N -- 30.09 in1019.0 mb 0.00 in0.0 mm 0.00 in/hr0.0 mm/hr 0.00 in0.0 mm
01:07 AM 44.9°F7.2°C 36.8°F2.7°C 73% - N16091.8 kmh N -- 30.09 in1019.0 mb 0.00 in0.0 mm 0.00 in/hr0.0 mm/hr 0.00 in0.0 mm
01:02 AM 44.9°F7.2°C 36.8°F2.7°C 73% - N16091.8 kmh N -- 30.09 in1019.0 mb 0.00 in0.0 mm 0.00 in/hr0.0 mm/hr 0.00 in0.0 mm
12:57 AM 44.9°F7.2°C 36.8°F2.7°C 73% - N16091.8 kmh N -- 30.09 in1019.0 mb 0.00 in0.0 mm 0.00 in/hr0.0 mm/hr 0.00 in0.0 mm
12:52 AM 44.9°F7.2°C 36.8°F2.7°C 73% - N16091.8 kmh N -- 30.09 in1019.0 mb 0.00 in0.0 mm 0.00 in/hr0.0 mm/hr 0.00 in0.0 mm
12:47 AM 44.9°F7.2°C 36.8°F2.7°C 73% - N16091.8 kmh N -- 30.09 in1019.0 mb 0.00 in0.0 mm 0.00 in/hr0.0 mm/hr 0.00 in0.0 mm
12:42 AM 44.9°F7.2°C 36.8°F2.7°C 73% - N16091.8 kmh N -- 30.08 in1018.6 mb 0.00 in0.0 mm 0.00 in/hr0.0 mm/hr 0.00 in0.0 mm
12:37 AM 45.1°F7.3°C 36.9°F2.7°C 73% - N16091.8 kmh N -- 30.08 in1018.6 mb 0.00 in0.0 mm 0.00 in/hr0.0 mm/hr 0.00 in0.0 mm
12:32 AM 45.1°F7.3°C 36.9°F2.7°C 73% - N16091.8 kmh N -- 30.08 in1018.6 mb 0.00 in0.0 mm 0.00 in/hr0.0 mm/hr 0.00 in0.0 mm
12:27 AM 45.3°F7.4°C 37.1°F2.8°C 73% - N16091.8 kmh N -- 30.08 in1018.6 mb 0.00 in0.0 mm 0.00 in/hr0.0 mm/hr 0.00 in0.0 mm
12:22 AM 45.5°F7.5°C 37.3°F2.9°C 73% - N16091.8 kmh N -- 30.08 in1018.6 mb 0.00 in0.0 mm 0.00 in/hr0.0 mm/hr 0.00 in0.0 mm
12:17 AM 45.6°F7.6°C 37.5°F3.1°C 73% - N16091.8 kmh N -- 30.08 in1018.6 mb 0.00 in0.0 mm 0.00 in/hr0.0 mm/hr 0.00 in0.0 mm
12:12 AM 45.6°F7.6°C 37.5°F3.1°C 73% - N16091.8 kmh N -- 30.08 in1018.6 mb 0.00 in0.0 mm 0.00 in/hr0.0 mm/hr 0.00 in0.0 mm
12:07 AM 46.0°F7.8°C 37.8°F3.2°C 73% - N16091.8 kmh N -- 30.08 in1018.6 mb 0.00 in0.0 mm 0.00 in/hr0.0 mm/hr 0.00 in0.0 mm
12:02 AM 46.0°F7.8°C 37.8°F3.2°C 73% - N16091.8 kmh N -- 30.07 in1018.3 mb 0.00 in0.0 mm 0.00 in/hr0.0 mm/hr 0.00 in0.0 mm